Time;durP1;ratioP1;P1;durP2;ratioP2;P2;SDS_P1;SDS_P2;PMS_P1;PMS_P2;Temp;Humidity;BMP_temperature;BMP_pressure;BME280_temperature;BME280_humidity;BME280_pressure;Samples;Min_cycle;Max_cycle;Signal;HPM_P1;HPM_P2
2024/02/24 00:02:23;;;;;;;2.80;1.90;;;;;;;7.60;100.00;98580.55;183257;1235;44173;-88
2024/02/24 00:06:25;;;;;;;4.30;2.30;;;;;;;7.55;100.00;98574.45;183638;1234;45972;-85
2024/02/24 00:10:27;;;;;;;6.80;3.60;;;;;;;7.47;100.00;98559.40;183390;1236;58094;-86
2024/02/24 00:14:29;;;;;;;7.80;4.40;;;;;;;7.39;100.00;98542.52;182968;1235;46506;-87
2024/02/24 00:18:31;;;;;;;5.10;4.60;;;;;;;7.34;100.00;98544.97;183456;1232;46074;-84
2024/02/24 00:22:35;;;;;;;9.80;5.50;;;;;;;7.25;100.00;98559.38;183530;1236;46430;-86
2024/02/24 00:26:36;;;;;;;8.80;5.70;;;;;;;7.12;100.00;98569.73;183984;1232;46030;-87
2024/02/24 00:30:38;;;;;;;7.00;5.70;;;;;;;6.98;100.00;98572.10;183003;1236;58906;-87
2024/02/24 00:34:40;;;;;;;8.00;5.60;;;;;;;6.84;100.00;98573.29;183000;1232;46008;-87
2024/02/24 00:38:42;;;;;;;7.10;4.10;;;;;;;6.74;100.00;98575.05;183574;1232;45967;-88
2024/02/24 00:42:44;;;;;;;4.80;3.90;;;;;;;6.66;100.00;98568.05;183330;1232;45977;-87
2024/02/24 00:46:46;;;;;;;4.80;2.90;;;;;;;6.61;100.00;98566.60;182949;1232;46082;-89
2024/02/24 00:50:48;;;;;;;4.20;3.60;;;;;;;6.49;100.00;98562.92;183898;1236;59588;-86
2024/02/24 00:54:49;;;;;;;8.10;3.90;;;;;;;6.38;100.00;98556.81;184401;1232;45636;-87
2024/02/24 00:58:51;;;;;;;4.40;3.40;;;;;;;6.32;100.00;98547.54;183063;1232;45969;-84
2024/02/24 01:02:54;;;;;;;5.80;4.60;;;;;;;6.25;100.00;98539.19;182746;1234;46151;-85
2024/02/24 01:06:56;;;;;;;6.50;4.10;;;;;;;6.24;100.00;98543.36;184387;1232;45906;-88
2024/02/24 01:10:58;;;;;;;5.30;3.50;;;;;;;6.26;100.00;98544.43;184617;1232;58304;-85
2024/02/24 01:15:00;;;;;;;6.40;3.80;;;;;;;6.27;100.00;98556.81;183794;1232;46113;-88
2024/02/24 01:19:02;;;;;;;6.80;4.50;;;;;;;6.24;100.00;98556.76;183634;1232;44289;-87
2024/02/24 01:23:04;;;;;;;4.20;3.30;;;;;;;6.23;100.00;98563.52;183856;1232;46135;-87
2024/02/24 01:27:06;;;;;;;5.20;3.70;;;;;;;6.22;100.00;98569.20;183892;1232;46537;-89
2024/02/24 01:31:08;;;;;;;8.60;4.60;;;;;;;6.22;100.00;98571.55;184880;1232;58070;-88
2024/02/24 01:35:10;;;;;;;10.60;3.70;;;;;;;6.18;100.00;98573.83;184738;1233;46202;-86
2024/02/24 01:39:12;;;;;;;4.00;3.30;;;;;;;6.16;100.00;98573.13;184268;1232;44011;-87
2024/02/24 01:43:28;;;;;;;2.90;2.60;;;;;;;6.12;100.00;98561.33;184287;1232;46049;-86
2024/02/24 01:47:30;;;;;;;;;;;;;;;6.12;100.00;98553.20;184178;1233;46444;-86
2024/02/24 01:51:32;;;;;;;4.30;3.70;;;;;;;6.08;100.00;98544.62;183561;1232;59216;-88
2024/02/24 01:55:34;;;;;;;2.10;1.90;;;;;;;6.03;100.00;98544.48;184142;1232;45976;-88
2024/02/24 01:59:36;;;;;;;1.70;1.60;;;;;;;5.98;100.00;98541.24;183725;1233;45902;-88
2024/02/24 02:03:38;;;;;;;3.10;2.40;;;;;;;5.91;100.00;98548.03;185224;1233;44076;-88
2024/02/24 02:07:40;;;;;;;2.80;2.10;;;;;;;5.90;100.00;98563.62;183312;1234;46142;-86
2024/02/24 02:11:43;;;;;;;2.00;1.50;;;;;;;5.95;100.00;98587.83;185521;1232;59146;-88
2024/02/24 02:16:01;;;;;;;1.80;1.40;;;;;;;5.92;100.00;98611.50;184692;1236;46115;-84
2024/02/24 02:20:04;;;;;;;3.40;2.00;;;;;;;5.86;100.00;98611.61;185292;1234;44160;-82
2024/02/24 02:24:06;;;;;;;2.50;1.90;;;;;;;5.88;100.00;98600.38;184585;1232;46074;-86
2024/02/24 02:28:09;;;;;;;1.50;1.30;;;;;;;5.84;100.00;98594.06;185227;1232;45972;-89
2024/02/24 02:32:10;;;;;;;3.90;1.50;;;;;;;5.84;100.00;98571.02;183464;1232;58417;-90
2024/02/24 02:36:12;;;;;;;3.00;1.70;;;;;;;5.83;100.00;98584.11;185106;1233;46058;-86
2024/02/24 02:40:15;;;;;;;5.70;3.60;;;;;;;5.78;100.00;98595.64;184940;1232;44018;-82
2024/02/24 02:44:17;;;;;;;4.60;3.00;;;;;;;5.82;100.00;98579.92;184675;1232;46057;-89
2024/02/24 02:48:19;;;;;;;6.80;3.50;;;;;;;5.78;100.00;98582.51;185307;1232;45995;-86
2024/02/24 02:52:21;;;;;;;3.30;2.40;;;;;;;5.70;100.00;98582.99;184165;1232;59439;-88
2024/02/24 02:56:23;;;;;;;2.00;1.80;;;;;;;5.64;100.00;98577.67;184542;1236;46000;-84
2024/02/24 03:00:25;;;;;;;1.90;1.60;;;;;;;5.62;100.00;98557.15;184521;1232;46032;-83
2024/02/24 03:04:27;;;;;;;5.40;3.40;;;;;;;5.58;100.00;98563.45;184780;1236;45893;-85
2024/02/24 03:08:32;;;;;;;5.60;2.90;;;;;;;5.62;100.00;98555.05;184107;1232;46061;-87
2024/02/24 03:12:35;;;;;;;3.70;2.10;;;;;;;5.58;100.00;98580.36;183838;1232;59301;-84
2024/02/24 03:16:37;;;;;;;3.60;2.40;;;;;;;5.53;100.00;98592.02;183855;1236;46013;-86
2024/02/24 03:20:39;;;;;;;4.70;2.80;;;;;;;5.59;100.00;98610.88;184128;1234;45915;-88
2024/02/24 03:24:42;;;;;;;5.40;3.20;;;;;;;5.71;100.00;98621.38;184704;1232;44713;-89
2024/02/24 03:28:44;;;;;;;2.80;2.30;;;;;;;5.84;100.00;98614.44;185016;1232;44542;-86
2024/02/24 03:32:46;;;;;;;6.00;3.30;;;;;;;5.94;100.00;98601.48;184852;1233;58354;-87
2024/02/24 03:36:48;;;;;;;4.10;2.70;;;;;;;6.03;100.00;98601.91;185652;1232;44027;-86
2024/02/24 03:40:50;;;;;;;3.10;2.00;;;;;;;6.11;100.00;98614.05;184727;1232;45853;-86
2024/02/24 03:44:52;;;;;;;2.50;2.30;;;;;;;6.19;100.00;98621.11;185450;1232;45867;-88
2024/02/24 03:48:55;;;;;;;3.00;1.90;;;;;;;6.22;100.00;98628.88;185829;1232;45068;-86
2024/02/24 03:52:57;;;;;;;4.50;3.30;;;;;;;6.23;100.00;98635.17;185624;1234;59382;-86
2024/02/24 03:56:59;;;;;;;3.80;3.40;;;;;;;6.21;100.00;98625.27;184557;1233;44732;-89
2024/02/24 04:01:02;;;;;;;5.90;4.40;;;;;;;6.21;100.00;98632.67;184789;1234;46003;-85
2024/02/24 04:05:05;;;;;;;4.90;3.50;;;;;;;6.23;100.00;98648.67;185437;1233;45790;-88
2024/02/24 04:09:07;;;;;;;5.60;3.30;;;;;;;6.24;100.00;98651.59;186007;1235;44904;-88
2024/02/24 04:13:09;;;;;;;5.30;3.80;;;;;;;6.22;100.00;98651.26;184711;1232;58188;-88
2024/02/24 04:17:11;;;;;;;2.50;2.20;;;;;;;6.18;100.00;98656.37;183983;1233;44697;-82
2024/02/24 04:21:13;;;;;;;3.70;1.90;;;;;;;6.14;100.00;98661.59;184332;1232;44772;-87
2024/02/24 04:25:15;;;;;;;1.90;1.40;;;;;;;6.11;100.00;98659.23;185765;1232;44046;-90
2024/02/24 04:29:17;;;;;;;5.70;2.30;;;;;;;6.10;100.00;98659.35;184042;1232;46074;-87
2024/02/24 04:33:19;;;;;;;3.00;2.00;;;;;;;6.07;100.00;98665.80;184567;1233;58090;-88
2024/02/24 04:37:24;;;;;;;4.70;2.20;;;;;;;6.01;100.00;98673.17;185653;1233;44465;-85
2024/02/24 04:41:25;;;;;;;5.40;2.20;;;;;;;5.97;100.00;98679.79;185470;1232;45983;-86
2024/02/24 04:45:28;;;;;;;2.30;1.50;;;;;;;5.96;100.00;98689.77;185524;1232;44726;-89
2024/02/24 04:49:30;;;;;;;2.80;2.10;;;;;;;5.90;100.00;98694.55;184942;1232;44630;-86
2024/02/24 04:53:32;;;;;;;4.10;2.50;;;;;;;5.86;100.00;98701.87;185765;1232;58007;-87
2024/02/24 04:57:34;;;;;;;3.30;2.20;;;;;;;5.84;100.00;98711.35;185423;1232;46026;-86
2024/02/24 05:01:36;;;;;;;3.70;2.20;;;;;;;5.84;100.00;98718.98;185035;1232;44965;-82
2024/02/24 05:05:38;;;;;;;3.10;2.20;;;;;;;5.82;100.00;98728.39;185456;1232;46068;-87
2024/02/24 05:09:40;;;;;;;3.50;1.90;;;;;;;5.80;100.00;98730.36;184838;1232;46007;-84
2024/02/24 05:13:42;;;;;;;5.60;1.90;;;;;;;5.79;100.00;98725.16;184223;1232;58075;-89
2024/02/24 05:17:46;;;;;;;2.20;1.90;;;;;;;5.82;100.00;98726.70;184446;1232;45794;-88
2024/02/24 05:21:48;;;;;;;3.80;1.50;;;;;;;5.80;100.00;98741.67;184948;1232;44811;-87
2024/02/24 05:25:50;;;;;;;2.10;1.70;;;;;;;5.77;100.00;98750.34;184859;1232;46033;-87
2024/02/24 05:29:52;;;;;;;4.70;2.30;;;;;;;5.79;100.00;98748.08;184381;1234;46087;-89
2024/02/24 05:33:56;;;;;;;2.40;1.90;;;;;;;5.81;100.00;98750.33;184576;1232;58461;-85
2024/02/24 05:38:00;;;;;;;11.10;2.80;;;;;;;5.83;100.00;98757.03;184536;1232;45997;-88
2024/02/24 05:42:02;;;;;;;3.10;2.50;;;;;;;5.88;100.00;98766.65;185284;1232;46041;-87
2024/02/24 05:46:06;;;;;;;2.90;2.00;;;;;;;5.88;100.00;98776.00;184837;1232;44521;-90
2024/02/24 05:50:08;;;;;;;4.30;1.80;;;;;;;5.89;100.00;98781.15;184866;1232;46066;-90
2024/02/24 05:54:11;;;;;;;3.50;2.20;;;;;;;5.93;100.00;98784.74;186269;1232;59403;-87
2024/02/24 05:58:13;;;;;;;5.10;2.90;;;;;;;5.94;100.00;98791.61;185523;1232;44711;-88
2024/02/24 06:02:15;;;;;;;3.00;2.40;;;;;;;5.99;100.00;98788.05;184115;1233;46002;-89
2024/02/24 06:06:18;;;;;;;3.60;3.20;;;;;;;6.05;100.00;98793.40;184828;1236;45929;-89
2024/02/24 06:10:21;;;;;;;4.10;3.10;;;;;;;6.06;100.00;98799.56;184705;1233;45980;-86
2024/02/24 06:14:23;;;;;;;3.10;2.20;;;;;;;6.05;100.00;98803.58;184536;1232;58214;-91
2024/02/24 06:18:25;;;;;;;5.20;2.70;;;;;;;6.04;100.00;98806.89;184695;1232;45912;-85
2024/02/24 06:22:27;;;;;;;2.90;2.70;;;;;;;6.07;100.00;98807.47;184611;1232;45925;-86
2024/02/24 06:26:29;;;;;;;3.30;2.30;;;;;;;6.11;100.00;98809.39;184593;1232;44068;-88
2024/02/24 06:30:32;;;;;;;2.10;1.90;;;;;;;6.13;100.00;98813.77;185009;1236;45968;-90
2024/02/24 06:34:33;;;;;;;5.60;3.00;;;;;;;6.18;100.00;98824.88;185412;1233;59400;-86
2024/02/24 06:38:35;;;;;;;3.90;2.50;;;;;;;6.18;100.00;98839.25;184980;1233;45822;-84
2024/02/24 06:42:37;;;;;;;4.30;2.60;;;;;;;6.13;100.00;98845.48;184848;1233;44679;-86
2024/02/24 06:46:40;;;;;;;5.30;3.10;;;;;;;6.11;100.00;98859.06;185390;1232;45868;-84
2024/02/24 06:50:42;;;;;;;7.10;3.20;;;;;;;6.10;100.00;98866.35;185636;1232;45329;-83
2024/02/24 06:54:46;;;;;;;10.10;3.10;;;;;;;6.11;100.00;98889.17;185756;1232;57481;-83
2024/02/24 06:58:48;;;;;;;2.20;2.00;;;;;;;6.09;100.00;98892.80;186026;1232;45883;-87
2024/02/24 07:02:51;;;;;;;3.90;2.80;;;;;;;6.06;100.00;98896.39;185762;1236;45849;-87
2024/02/24 07:06:53;;;;;;;3.10;2.50;;;;;;;6.04;100.00;98905.55;185905;1236;44603;-89
2024/02/24 07:10:56;;;;;;;5.50;2.70;;;;;;;6.04;100.00;98912.64;185703;1232;46027;-90
2024/02/24 07:14:58;;;;;;;9.20;5.50;;;;;;;6.04;100.00;98918.38;185581;1236;57890;-85
2024/02/24 07:19:00;;;;;;;7.70;5.50;;;;;;;6.05;100.00;98923.42;185212;1235;45915;-86
2024/02/24 07:23:03;;;;;;;4.90;3.40;;;;;;;6.11;100.00;98924.88;186231;1232;44406;-83
2024/02/24 07:27:05;;;;;;;3.40;2.10;;;;;;;6.23;100.00;98923.20;185920;1232;44780;-86
2024/02/24 07:31:07;;;;;;;12.10;4.70;;;;;;;6.43;100.00;98924.80;186061;1233;45705;-85
2024/02/24 07:35:09;;;;;;;4.60;2.80;;;;;;;6.63;100.00;98924.85;185941;1232;58021;-88
2024/02/24 07:39:12;;;;;;;4.70;3.70;;;;;;;6.84;100.00;98929.52;186008;1236;88530;-76
2024/02/24 07:43:15;;;;;;;6.80;4.30;;;;;;;7.09;100.00;98931.56;185702;1232;45912;-78
2024/02/24 07:47:20;;;;;;;6.40;4.40;;;;;;;7.30;100.00;98935.55;185741;1232;43913;-78
2024/02/24 07:51:24;;;;;;;5.00;3.40;;;;;;;7.51;100.00;98939.52;185821;1232;46005;-82
2024/02/24 07:55:27;;;;;;;4.00;3.30;;;;;;;7.65;100.00;98949.94;185733;1234;59705;-81
2024/02/24 07:59:30;;;;;;;5.10;3.40;;;;;;;7.78;100.00;98951.02;185782;1232;45890;-77
2024/02/24 08:03:33;;;;;;;3.10;2.70;;;;;;;7.93;100.00;98956.19;185933;1232;45896;-78
2024/02/24 08:07:36;;;;;;;7.30;3.20;;;;;;;8.03;100.00;98967.66;185675;1232;44284;-77
2024/02/24 08:11:42;;;;;;;5.80;4.00;;;;;;;8.17;100.00;98968.44;185670;1233;43856;-79
2024/02/24 08:15:45;;;;;;;5.10;2.70;;;;;;;8.35;100.00;98973.73;185785;1233;59941;-76
2024/02/24 08:19:48;;;;;;;4.10;2.50;;;;;;;8.45;100.00;98976.79;185651;1232;43584;-77
2024/02/24 08:23:52;;;;;;;3.60;3.30;;;;;;;8.55;100.00;98983.38;186021;1232;43980;-77
2024/02/24 08:27:55;;;;;;;4.10;3.70;;;;;;;8.65;100.00;98989.84;185988;1235;46131;-75
2024/02/24 08:32:06;;;;;;;3.40;2.70;;;;;;;8.78;100.00;98992.70;186413;1233;44179;-77
2024/02/24 08:36:15;;;;;;;5.20;3.40;;;;;;;8.87;100.00;98999.60;186051;1236;58255;-75
2024/02/24 08:40:21;;;;;;;4.90;2.70;;;;;;;9.01;99.88;99005.91;186150;1232;44366;-75
2024/02/24 08:44:24;;;;;;;6.30;2.80;;;;;;;9.13;99.27;99008.45;185875;1232;45897;-76
2024/02/24 08:48:27;;;;;;;2.40;1.90;;;;;;;9.21;96.58;99011.30;186024;1232;44510;-76
2024/02/24 08:52:30;;;;;;;4.90;2.40;;;;;;;9.34;97.61;99020.41;186171;1232;45242;-77
2024/02/24 08:56:45;;;;;;;4.00;1.70;;;;;;;9.44;94.88;99024.46;186116;1233;60126;-77
2024/02/24 09:00:54;;;;;;;2.60;1.90;;;;;;;9.50;93.77;99029.70;186016;1233;45770;-79
2024/02/24 09:04:58;;;;;;;3.80;2.00;;;;;;;9.58;92.76;99036.16;185954;1232;43956;-82
2024/02/24 09:09:06;;;;;;;5.40;3.00;;;;;;;9.62;91.17;99040.41;186000;1232;43883;-73
2024/02/24 09:13:09;;;;;;;4.60;2.40;;;;;;;9.68;92.02;99041.73;185861;1232;44105;-74
2024/02/24 09:17:21;;;;;;;4.70;2.60;;;;;;;9.70;91.62;99048.64;185980;1232;58702;-77
2024/02/24 09:21:24;;;;;;;4.80;2.40;;;;;;;9.72;91.43;99058.90;185795;1232;44523;-76
2024/02/24 09:25:27;;;;;;;6.40;2.80;;;;;;;9.72;91.50;99056.08;186088;1232;44466;-74
2024/02/24 09:29:30;;;;;;;5.10;3.30;;;;;;;9.74;90.40;99059.61;186192;1234;43565;-75
2024/02/24 09:33:33;;;;;;;3.30;2.20;;;;;;;9.79;87.76;99061.92;186194;1232;45881;-78
2024/02/24 09:37:37;;;;;;;6.60;3.40;;;;;;;9.88;89.39;99069.39;185948;1233;58351;-73
2024/02/24 09:41:40;;;;;;;3.30;2.30;;;;;;;9.97;89.18;99070.69;186008;1232;43630;-75
2024/02/24 09:45:47;;;;;;;6.80;2.30;;;;;;;10.06;88.47;99071.16;185988;1232;45954;-76
2024/02/24 09:49:50;;;;;;;;;;;;;;;10.16;86.46;99084.58;186018;1233;44658;-74
2024/02/24 09:53:52;;;;;;;2.20;2.00;;;;;;;10.22;85.26;99093.15;186122;1232;45816;-74
2024/02/24 09:58:00;;;;;;;2.80;1.90;;;;;;;10.30;87.18;99102.80;186070;1232;58509;-75
2024/02/24 10:02:03;;;;;;;2.20;1.90;;;;;;;10.31;84.87;99107.73;185992;1232;44181;-74
2024/02/24 10:07:04;;;;;;;4.80;2.80;;;;;;;10.37;84.37;99109.92;185988;1232;43922;-77
2024/02/24 10:11:09;;;;;;;3.20;2.00;;;;;;;10.48;81.45;99119.70;186217;1232;44593;-74
2024/02/24 10:15:15;;;;;;;7.20;2.40;;;;;;;10.58;83.92;99125.46;185903;1232;46612;-76
2024/02/24 10:19:19;;;;;;;2.50;2.40;;;;;;;10.57;82.47;99132.07;186119;1232;58361;-73
2024/02/24 10:23:24;;;;;;;;;;;;;;;10.65;82.44;99133.45;185957;1232;44530;-74
2024/02/24 10:27:28;;;;;;;8.80;5.00;;;;;;;10.71;82.73;99135.66;186162;1233;45694;-75
2024/02/24 10:31:31;;;;;;;3.10;2.20;;;;;;;10.84;81.12;99139.31;185878;1232;44001;-74
2024/02/24 10:35:33;;;;;;;5.40;2.80;;;;;;;10.93;79.62;99141.77;186205;1232;46023;-74
2024/02/24 10:39:39;;;;;;;3.30;2.20;;;;;;;11.03;80.18;99149.34;186112;1232;57823;-71
2024/02/24 10:43:41;;;;;;;2.80;2.60;;;;;;;11.08;76.26;99147.40;185895;1232;43680;-72
2024/02/24 10:47:43;;;;;;;2.30;1.80;;;;;;;11.16;77.25;99145.89;186136;1232;44519;-71
2024/02/24 10:51:49;;;;;;;3.60;2.30;;;;;;;11.27;76.24;99142.80;185843;1232;44911;-72
2024/02/24 10:55:51;;;;;;;3.40;2.90;;;;;;;11.37;75.21;99143.41;186209;1232;44658;-73
2024/02/24 10:59:53;;;;;;;3.20;2.20;;;;;;;11.44;74.73;99148.88;186297;1232;58088;-73
2024/02/24 11:03:55;;;;;;;2.40;1.80;;;;;;;11.50;73.93;99152.92;186332;1233;43779;-72
2024/02/24 11:08:35;;;;;;;4.60;3.00;;;;;;;11.45;73.58;99159.39;186061;1232;43859;-71
2024/02/24 11:12:37;;;;;;;2.60;2.40;;;;;;;11.48;74.62;99160.04;185397;1232;46212;-67
2024/02/24 11:16:41;;;;;;;2.90;2.60;;;;;;;11.53;72.43;99158.79;185446;1232;43757;-67
2024/02/24 11:20:52;;;;;;;3.30;2.30;;;;;;;11.51;70.78;99148.99;185428;1232;58998;-66
2024/02/24 11:25:19;;;;;;;2.40;2.20;;;;;;;11.48;72.39;99150.61;185516;1234;44270;-67
2024/02/24 11:29:29;;;;;;;3.40;2.40;;;;;;;11.53;70.33;99156.83;185249;1236;45984;-67
2024/02/24 11:33:38;;;;;;;4.50;2.80;;;;;;;11.55;70.19;99158.92;185388;1233;44860;-65
2024/02/24 11:37:44;;;;;;;4.50;2.80;;;;;;;11.54;72.31;99163.70;185493;1232;43491;-66
2024/02/24 11:41:47;;;;;;;5.80;2.80;;;;;;;11.64;72.47;99159.39;185427;1232;58268;-65
2024/02/24 11:45:53;;;;;;;4.00;3.20;;;;;;;11.73;73.56;99160.30;185305;1232;46094;-66
2024/02/24 11:49:56;;;;;;;8.80;5.90;;;;;;;11.79;74.67;99163.69;185627;1232;44644;-65
2024/02/24 11:53:59;;;;;;;30.40;14.80;;;;;;;11.88;74.06;99167.04;185416;1232;43835;-66
2024/02/24 11:58:07;;;;;;;7.40;3.50;;;;;;;11.94;73.79;99174.05;185373;1233;44856;-65
2024/02/24 12:02:15;;;;;;;4.80;4.10;;;;;;;11.97;72.52;99174.14;185352;1236;59095;-65
2024/02/24 12:06:24;;;;;;;5.70;3.50;;;;;;;12.01;72.97;99183.10;185447;1232;45919;-65
2024/02/24 12:10:30;;;;;;;5.20;2.80;;;;;;;12.02;72.49;99187.86;185511;1232;44716;-66
2024/02/24 12:14:32;;;;;;;4.50;3.80;;;;;;;12.03;73.97;99190.59;185629;1232;43689;-64
2024/02/24 12:18:35;;;;;;;6.70;4.50;;;;;;;12.14;73.99;99194.90;185304;1232;43907;-66
2024/02/24 12:22:37;;;;;;;4.20;3.30;;;;;;;12.24;74.71;99203.15;185257;1232;58284;-65
2024/02/24 12:26:40;;;;;;;5.60;3.20;;;;;;;12.31;71.80;99212.57;185574;1232;45869;-65
2024/02/24 12:30:45;;;;;;;4.10;2.80;;;;;;;12.33;70.67;99213.94;185591;1232;43518;-64
2024/02/24 12:34:48;;;;;;;4.20;2.80;;;;;;;12.34;70.87;99215.56;185709;1232;43967;-66
2024/02/24 12:38:50;;;;;;;9.90;4.90;;;;;;;12.31;70.59;99218.36;185390;1232;43806;-67
2024/02/24 12:42:52;;;;;;;10.40;9.00;;;;;;;12.16;71.92;99217.27;185477;1232;60268;-67
2024/02/24 12:46:54;;;;;;;15.60;10.10;;;;;;;12.15;72.75;99217.99;185423;1232;45898;-66
2024/02/24 12:50:57;;;;;;;26.20;7.80;;;;;;;12.15;72.51;99221.52;185435;1232;46502;-66
2024/02/24 12:55:00;;;;;;;23.70;12.20;;;;;;;12.12;72.15;99226.21;185560;1232;45853;-66
2024/02/24 12:59:03;;;;;;;10.70;4.80;;;;;;;12.11;72.76;99224.88;185378;1232;45866;-66
2024/02/24 13:03:04;;;;;;;17.20;7.80;;;;;;;12.06;73.21;99226.69;185342;1232;57915;-66
2024/02/24 13:07:07;;;;;;;18.90;8.10;;;;;;;12.06;72.38;99228.13;185394;1234;94009;-87
2024/02/24 13:11:09;;;;;;;3.80;1.90;;;;;;;12.00;70.35;99232.48;184079;1234;44679;-89
2024/02/24 13:15:12;;;;;;;5.60;2.50;;;;;;;11.99;70.06;99238.28;183980;1235;45986;-88
2024/02/24 13:19:13;;;;;;;2.70;2.40;;;;;;;12.05;69.12;99239.78;183685;1234;46068;-87
2024/02/24 13:23:16;;;;;;;9.20;4.70;;;;;;;12.08;67.57;99237.50;183388;1234;59403;-86
2024/02/24 13:27:19;;;;;;;4.40;2.10;;;;;;;12.12;67.65;99234.95;184502;1234;45987;-86
2024/02/24 13:31:23;;;;;;;6.00;2.50;;;;;;;12.21;66.98;99243.41;183852;1233;45969;-84
2024/02/24 13:35:27;;;;;;;6.60;2.30;;;;;;;12.31;66.92;99240.42;183984;1234;45976;-90
2024/02/24 13:39:29;;;;;;;2.90;2.30;;;;;;;12.35;65.64;99246.54;183769;1233;44574;-89
2024/02/24 13:43:31;;;;;;;3.70;1.90;;;;;;;12.30;64.73;99247.16;183660;1237;57072;-88
2024/02/24 13:47:34;;;;;;;2.20;2.00;;;;;;;12.24;64.34;99253.65;184156;1233;46133;-90
2024/02/24 13:51:36;;;;;;;2.90;2.10;;;;;;;12.21;64.79;99258.88;184057;1234;46089;-89
2024/02/24 13:55:38;;;;;;;3.80;1.90;;;;;;;12.27;65.26;99265.92;184172;1237;46176;-90
2024/02/24 13:59:40;;;;;;;3.00;2.20;;;;;;;12.40;64.17;99266.85;183899;1234;46181;-89
2024/02/24 14:03:43;;;;;;;4.00;3.50;;;;;;;12.47;63.35;99273.45;183825;1234;57878;-88
2024/02/24 14:07:45;;;;;;;6.40;3.30;;;;;;;12.49;64.28;99280.48;183293;1235;46082;-88
2024/02/24 14:11:47;;;;;;;5.10;2.70;;;;;;;12.47;65.39;99289.84;183002;1235;46043;-87
2024/02/24 14:15:50;;;;;;;2.70;2.20;;;;;;;12.44;64.66;99296.37;183162;1233;45799;-88
2024/02/24 14:19:52;;;;;;;8.50;5.10;;;;;;;12.42;62.96;99300.98;185041;1233;45932;-87
2024/02/24 14:23:55;;;;;;;4.80;3.80;;;;;;;12.48;63.33;99301.11;184085;1234;57787;-87
2024/02/24 14:28:07;;;;;;;4.80;3.50;;;;;;;12.49;64.66;99303.42;184108;1234;46443;-85
2024/02/24 14:32:16;;;;;;;5.60;4.10;;;;;;;12.43;65.57;99308.48;185580;1234;44134;-88
2024/02/24 14:36:18;;;;;;;7.80;4.90;;;;;;;12.37;66.83;99317.45;184431;1234;45977;-89
2024/02/24 14:40:22;;;;;;;16.40;5.80;;;;;;;12.36;67.87;99320.98;185859;1234;44099;-88
2024/02/24 14:44:24;;;;;;;33.40;16.40;;;;;;;12.42;68.93;99321.73;185186;1233;60217;-85
2024/02/24 14:48:26;;;;;;;26.30;17.30;;;;;;;12.43;68.89;99325.96;185418;1234;45923;-86
2024/02/24 14:52:29;;;;;;;19.10;10.40;;;;;;;12.44;68.95;99329.05;184443;1234;43855;-87
2024/02/24 14:56:31;;;;;;;10.20;4.10;;;;;;;12.40;69.66;99331.96;183260;1237;46011;-83
2024/02/24 15:00:33;;;;;;;3.40;2.40;;;;;;;12.31;69.41;99336.97;184370;1234;46044;-88
2024/02/24 15:04:35;;;;;;;2.80;1.70;;;;;;;12.18;70.62;99336.90;183535;1237;58058;-89
2024/02/24 15:08:37;;;;;;;3.20;2.40;;;;;;;12.18;71.97;99338.54;183802;1234;45964;-84
2024/02/24 15:12:40;;;;;;;3.10;2.90;;;;;;;12.20;71.47;99343.41;184471;1235;46071;-87
2024/02/24 15:16:47;;;;;;;7.90;3.20;;;;;;;12.09;68.97;99342.59;182715;1237;46232;-85
2024/02/24 15:20:49;;;;;;;6.40;3.50;;;;;;;12.00;69.76;99349.19;183531;1235;44798;-86
2024/02/24 15:24:54;;;;;;;4.20;2.70;;;;;;;11.94;69.72;99352.08;183836;1234;60317;-87
2024/02/24 15:28:56;;;;;;;7.80;4.20;;;;;;;11.89;70.47;99352.61;184355;1234;44204;-87
2024/02/24 15:32:58;;;;;;;4.90;3.50;;;;;;;11.84;71.47;99354.98;183093;1238;46071;-87
2024/02/24 15:37:00;;;;;;;5.10;3.10;;;;;;;11.74;71.20;99355.05;183996;1233;45972;-85
2024/02/24 15:41:03;;;;;;;12.70;7.50;;;;;;;11.63;71.54;99364.26;184142;1234;46089;-86
2024/02/24 15:45:05;;;;;;;33.50;20.10;;;;;;;11.52;71.63;99369.84;183776;1234;59400;-84
2024/02/24 15:49:07;;;;;;;8.80;6.00;;;;;;;11.40;72.69;99371.51;183577;1234;45897;-86
2024/02/24 15:53:10;;;;;;;17.50;9.70;;;;;;;11.30;73.09;99375.72;183827;1233;44123;-86
2024/02/24 15:57:12;;;;;;;16.10;11.10;;;;;;;11.18;73.72;99378.98;183703;1234;45916;-86
2024/02/24 16:01:13;;;;;;;22.30;9.00;;;;;;;11.06;74.69;99382.19;184614;1235;45950;-84
2024/02/24 16:05:17;;;;;;;15.40;11.70;;;;;;;10.94;74.60;99383.47;183969;1236;57805;-86
2024/02/24 16:09:20;;;;;;;10.90;7.30;;;;;;;10.81;74.49;99389.91;183653;1234;46082;-89
2024/02/24 16:13:22;;;;;;;11.90;7.80;;;;;;;10.72;74.74;99395.87;183503;1233;45969;-88
2024/02/24 16:17:24;;;;;;;14.90;9.20;;;;;;;10.64;74.98;99398.27;184297;1233;45940;-88
2024/02/24 16:21:27;;;;;;;22.70;16.00;;;;;;;10.50;76.26;99402.77;183790;1238;46007;-90
2024/02/24 16:25:29;;;;;;;17.50;11.30;;;;;;;10.28;77.93;99402.34;184597;1234;59531;-87
2024/02/24 16:29:31;;;;;;;37.30;23.30;;;;;;;10.07;80.42;99408.13;184742;1234;46050;-88
2024/02/24 16:33:33;;;;;;;19.40;13.90;;;;;;;9.81;82.89;99416.39;184174;1236;46179;-89
2024/02/24 16:37:36;;;;;;;15.50;11.30;;;;;;;9.58;84.20;99415.71;184453;1234;45993;-86
2024/02/24 16:41:39;;;;;;;13.00;10.80;;;;;;;9.23;87.03;99419.55;184498;1234;45979;-89
2024/02/24 16:45:42;;;;;;;19.60;10.60;;;;;;;8.86;89.39;99419.79;184066;1234;57260;-88
2024/02/24 16:49:44;;;;;;;39.10;25.50;;;;;;;8.68;90.00;99422.08;184361;1238;44484;-88
2024/02/24 16:53:46;;;;;;;22.00;17.00;;;;;;;8.45;91.85;99421.52;183510;1234;46090;-83
2024/02/24 16:57:48;;;;;;;82.20;44.10;;;;;;;8.34;93.23;99421.94;183679;1234;45967;-87
2024/02/24 17:01:50;;;;;;;93.00;49.20;;;;;;;8.22;94.80;99428.42;184240;1237;44777;-88
2024/02/24 17:05:52;;;;;;;28.90;19.90;;;;;;;8.22;94.87;99433.02;183769;1234;58108;-85
2024/02/24 17:09:54;;;;;;;21.60;14.40;;;;;;;8.19;94.22;99441.73;184040;1234;44182;-90
2024/02/24 17:13:56;;;;;;;23.60;15.90;;;;;;;8.00;95.86;99447.94;184771;1234;43987;-89
2024/02/24 17:18:00;;;;;;;47.80;29.40;;;;;;;7.88;96.56;99453.38;185145;1235;45967;-90
2024/02/24 17:22:02;;;;;;;228.10;106.70;;;;;;;7.70;97.01;99454.14;184150;1234;45957;-86
2024/02/24 17:26:04;;;;;;;212.80;96.60;;;;;;;7.53;98.55;99460.30;184247;1234;58136;-88
2024/02/24 17:30:07;;;;;;;203.80;105.40;;;;;;;7.51;97.93;99467.48;184692;1235;45959;-88
2024/02/24 17:34:10;;;;;;;87.00;46.90;;;;;;;7.60;95.16;99471.78;184450;1234;46008;-89
2024/02/24 17:38:12;;;;;;;50.60;27.60;;;;;;;7.78;93.16;99478.20;184737;1238;46091;-89
2024/02/24 17:42:14;;;;;;;34.10;18.40;;;;;;;7.93;91.54;99484.05;185130;1234;44528;-89
2024/02/24 17:46:16;;;;;;;22.10;13.60;;;;;;;8.05;90.93;99495.76;184835;1234;57988;-90
2024/02/24 17:50:18;;;;;;;16.80;12.50;;;;;;;8.09;90.19;99499.84;185089;1233;45970;-89
2024/02/24 17:54:23;;;;;;;21.30;12.00;;;;;;;8.13;89.62;99505.09;185137;1237;46080;-87
2024/02/24 17:58:28;;;;;;;29.00;17.00;;;;;;;8.17;89.10;99507.46;184699;1235;44961;-85
2024/02/24 18:02:45;;;;;;;23.70;18.20;;;;;;;8.16;89.07;99506.67;184487;1236;45241;-82
2024/02/24 18:06:47;;;;;;;29.30;15.80;;;;;;;8.07;90.41;99509.16;184504;1237;59531;-85
2024/02/24 18:10:50;;;;;;;45.00;27.00;;;;;;;7.92;92.14;99508.48;185186;1239;46041;-88
2024/02/24 18:14:52;;;;;;;27.90;18.10;;;;;;;7.72;93.83;99511.32;184975;1238;45599;-85
2024/02/24 18:18:55;;;;;;;38.40;25.20;;;;;;;7.65;94.14;99518.94;184249;1235;46098;-85
2024/02/24 18:22:57;;;;;;;40.20;29.50;;;;;;;7.38;97.41;99525.40;184356;1235;45430;-88
2024/02/24 18:27:01;;;;;;;28.70;19.40;;;;;;;7.32;96.87;99523.19;184186;1237;57919;-87
2024/02/24 18:31:03;;;;;;;24.80;17.30;;;;;;;7.25;96.46;99519.85;185144;1236;43877;-90
2024/02/24 18:35:05;;;;;;;30.30;18.70;;;;;;;7.20;96.51;99520.78;184642;1236;45923;-86
2024/02/24 18:39:08;;;;;;;25.10;15.90;;;;;;;7.21;95.60;99521.41;185176;1238;44175;-88
2024/02/24 18:43:10;;;;;;;20.20;11.80;;;;;;;7.30;94.79;99523.55;184891;1235;44339;-88
2024/02/24 18:47:12;;;;;;;25.70;16.00;;;;;;;7.38;94.09;99523.95;184361;1235;57810;-88
2024/02/24 18:51:14;;;;;;;23.60;15.30;;;;;;;7.43;93.08;99524.80;184563;1234;46176;-87